Time;durP1;ratioP1;P1;durP2;ratioP2;P2;SDS_P1;SDS_P2;PMS_P1;PMS_P2;Temp;Humidity;BMP_temperature;BMP_pressure;BME280_temperature;BME280_humidity;BME280_pressure;Samples;Min_cycle;Max_cycle;Signal;HPM_P1;HPM_P2
2021/04/07 00:01:52;;;;;;;4.97;2.03;;;;;;;5.94;69.70;101944.22;4137554;28;20030;-78
2021/04/07 00:03:53;;;;;;;5.15;2.22;;;;;;;5.92;70.71;101951.34;4137542;28;20042;-78
2021/04/07 00:05:54;;;;;;;3.83;2.20;;;;;;;5.79;71.26;101953.03;4137261;28;20038;-78
2021/04/07 00:07:56;;;;;;;6.03;2.35;;;;;;;5.74;71.19;101952.47;4137423;28;20045;-78
2021/04/07 00:09:59;;;;;;;6.70;1.90;;;;;;;5.89;70.70;101958.56;4137603;28;20030;-78
2021/04/07 00:12:00;;;;;;;7.03;2.70;;;;;;;5.90;70.40;101958.47;4137316;28;20042;-78
2021/04/07 00:14:05;;;;;;;5.70;1.80;;;;;;;5.81;70.39;101963.41;4137379;28;20041;-78
2021/04/07 00:16:07;;;;;;;4.95;1.65;;;;;;;5.74;71.59;101980.41;4137681;28;20042;-78
2021/04/07 00:18:09;;;;;;;4.13;1.95;;;;;;;5.83;70.94;101972.84;4137705;28;20516;-78
2021/04/07 00:20:13;;;;;;;2.72;1.85;;;;;;;5.88;71.39;101975.22;4137242;28;20034;-78
2021/04/07 00:22:14;;;;;;;2.90;1.80;;;;;;;5.79;71.66;101970.53;4137323;28;20090;-78
2021/04/07 00:24:15;;;;;;;3.35;1.85;;;;;;;5.72;72.67;101974.44;4136167;28;20065;-78
2021/04/07 00:26:17;;;;;;;7.60;2.15;;;;;;;5.76;71.33;101982.03;4137369;28;20065;-78
2021/04/07 00:28:21;;;;;;;5.40;1.73;;;;;;;5.88;72.01;101980.47;4137339;28;20085;-78
2021/04/07 00:30:27;;;;;;;4.78;1.70;;;;;;;5.89;71.94;101985.59;4137093;28;20120;-78
2021/04/07 00:32:28;;;;;;;3.67;1.90;;;;;;;5.99;71.32;101988.47;4135765;28;20034;-78
2021/04/07 00:34:32;;;;;;;5.05;1.80;;;;;;;5.91;71.02;101988.13;4137183;28;20041;-78
2021/04/07 00:36:33;;;;;;;2.50;1.63;;;;;;;5.65;72.59;101999.31;4137094;28;20440;-78
2021/04/07 00:38:35;;;;;;;3.90;2.97;;;;;;;5.80;72.83;101993.13;4136666;28;20042;-78
2021/04/07 00:40:36;;;;;;;4.05;1.92;;;;;;;5.82;72.24;101991.28;4137144;28;20430;-77
2021/04/07 00:42:38;;;;;;;5.22;2.35;;;;;;;5.72;73.06;101995.38;4135811;28;20057;-79
2021/04/07 00:44:39;;;;;;;5.28;2.20;;;;;;;5.78;72.40;102000.25;4137119;28;20034;-78
2021/04/07 00:46:40;;;;;;;4.28;2.17;;;;;;;5.77;72.77;102002.00;4136827;28;20030;-78
2021/04/07 00:48:42;;;;;;;4.38;1.95;;;;;;;5.75;72.18;102003.91;4137095;28;20084;-78
2021/04/07 00:50:43;;;;;;;5.25;2.20;;;;;;;5.79;72.84;101999.31;4135615;28;20062;-78
2021/04/07 00:52:45;;;;;;;5.03;1.80;;;;;;;5.91;72.09;101998.59;4136990;28;20081;-78
2021/04/07 00:54:46;;;;;;;3.75;1.80;;;;;;;5.91;71.85;102003.84;4136896;28;20034;-78
2021/04/07 00:56:52;;;;;;;6.18;2.22;;;;;;;5.78;72.75;102005.47;4135636;28;20037;-78
2021/04/07 00:58:53;;;;;;;4.90;2.60;;;;;;;5.73;73.15;102004.94;4136876;28;20500;-78
2021/04/07 01:00:54;;;;;;;6.20;3.22;;;;;;;5.82;73.04;102004.38;4136675;28;20069;-78
2021/04/07 01:02:58;;;;;;;6.78;1.90;;;;;;;5.90;73.33;102005.59;4136553;28;20026;-78
2021/04/07 01:05:01;;;;;;;4.43;2.50;;;;;;;6.05;72.19;102009.03;4136617;28;20037;-78
2021/04/07 01:07:02;;;;;;;5.18;3.08;;;;;;;6.01;72.01;102007.53;4136866;28;20046;-78
2021/04/07 01:09:04;;;;;;;5.70;3.10;;;;;;;5.95;72.28;102008.78;4136452;28;20040;-78
2021/04/07 01:11:06;;;;;;;6.00;2.58;;;;;;;5.94;72.21;102007.06;4136252;28;20026;-78
2021/04/07 01:13:07;;;;;;;4.20;2.30;;;;;;;5.99;72.05;102012.03;4136432;28;20041;-78
2021/04/07 01:15:09;;;;;;;6.07;2.00;;;;;;;6.05;72.21;102012.50;4136433;28;20094;-78
2021/04/07 01:17:12;;;;;;;3.70;2.22;;;;;;;6.00;71.76;102005.88;4136398;28;20034;-78
2021/04/07 01:19:14;;;;;;;2.97;1.90;;;;;;;6.03;71.80;102009.13;4136240;28;20571;-78
2021/04/07 01:21:16;;;;;;;6.30;2.28;;;;;;;5.97;71.88;102009.50;4136201;28;20045;-78
2021/04/07 01:23:19;;;;;;;3.53;1.58;;;;;;;5.95;72.25;102018.41;4136277;28;20027;-78
2021/04/07 01:25:21;;;;;;;3.08;2.40;;;;;;;5.84;71.96;102016.44;4136238;28;20029;-78
2021/04/07 01:27:22;;;;;;;4.28;1.77;;;;;;;5.83;71.78;102011.25;4136476;28;20038;-78
2021/04/07 01:29:23;;;;;;;5.80;2.28;;;;;;;5.82;71.49;102007.84;4136256;28;20042;-78
2021/04/07 01:31:25;;;;;;;1.88;1.60;;;;;;;5.74;71.29;102006.59;4136161;28;20034;-78
2021/04/07 01:33:26;;;;;;;3.15;1.65;;;;;;;5.74;70.23;102003.97;4136242;28;20557;-78
2021/04/07 01:35:27;;;;;;;2.85;1.55;;;;;;;5.57;71.98;102002.41;4136026;28;20460;-78
2021/04/07 01:37:28;;;;;;;4.10;1.98;;;;;;;5.50;72.46;102008.94;4135869;28;20030;-78
2021/04/07 01:39:31;;;;;;;6.32;1.75;;;;;;;5.54;72.98;102008.66;4136288;28;20503;-78
2021/04/07 01:41:32;;;;;;;5.70;2.05;;;;;;;5.50;72.68;102017.63;4136350;28;20512;-78
2021/04/07 01:43:35;;;;;;;3.75;1.60;;;;;;;5.45;72.05;102022.31;4136104;28;20030;-78
2021/04/07 01:45:37;;;;;;;4.57;2.40;;;;;;;5.27;72.35;102026.00;4136296;28;20645;-78
2021/04/07 01:47:38;;;;;;;2.50;1.58;;;;;;;5.28;72.88;102026.84;4136347;28;20034;-79
2021/04/07 01:49:40;;;;;;;4.55;1.67;;;;;;;5.24;73.18;102034.03;4136252;28;20030;-78
2021/04/07 01:51:43;;;;;;;5.15;2.63;;;;;;;5.21;73.48;102029.00;4135620;28;20030;-78
2021/04/07 01:53:44;;;;;;;3.13;1.58;;;;;;;5.10;73.43;102020.94;4136281;28;20038;-78
2021/04/07 01:55:45;;;;;;;4.53;2.05;;;;;;;4.98;73.85;102029.50;4136197;28;20490;-78
2021/04/07 01:57:47;;;;;;;3.30;1.70;;;;;;;4.94;73.26;102020.13;4136235;28;20038;-78
2021/04/07 01:59:48;;;;;;;3.42;1.63;;;;;;;4.89;73.98;102019.56;4135919;28;20112;-78
2021/04/07 02:01:51;;;;;;;3.78;1.73;;;;;;;4.92;74.05;102017.63;4135942;28;20031;-78
2021/04/07 02:03:53;;;;;;;2.40;1.52;;;;;;;4.81;73.94;102017.38;4136018;28;20057;-78
2021/04/07 02:05:54;;;;;;;4.53;1.70;;;;;;;4.90;74.05;102018.63;4135828;28;20039;-78
2021/04/07 02:07:56;;;;;;;2.63;1.80;;;;;;;4.93;74.50;102008.81;4135821;28;20030;-78
2021/04/07 02:10:00;;;;;;;3.88;1.60;;;;;;;4.78;74.93;102004.47;4136137;28;20030;-78
2021/04/07 02:12:02;;;;;;;3.50;1.65;;;;;;;4.84;74.60;102009.34;4135810;28;20105;-78
2021/04/07 02:14:03;;;;;;;5.55;1.70;;;;;;;4.73;75.16;102016.13;4135696;28;20485;-78
2021/04/07 02:16:15;;;;;;;4.72;2.40;;;;;;;4.77;74.80;102022.88;4135401;28;20026;-78
2021/04/07 02:18:17;;;;;;;1.75;1.30;;;;;;;4.89;73.94;102022.19;4135953;28;20474;-78
2021/04/07 02:20:19;;;;;;;2.70;1.63;;;;;;;4.93;73.62;102016.66;4135665;28;20501;-78
2021/04/07 02:22:20;;;;;;;4.82;2.05;;;;;;;4.62;74.70;102023.75;4135702;28;20030;-78
2021/04/07 02:24:22;;;;;;;2.67;1.92;;;;;;;4.54;75.71;102021.56;4136113;28;20057;-78
2021/04/07 02:26:23;;;;;;;3.63;1.83;;;;;;;4.46;75.95;102022.00;4135753;28;20405;-78
2021/04/07 02:28:25;;;;;;;3.65;2.00;;;;;;;4.44;75.81;102026.47;4135902;28;20042;-78
2021/04/07 02:30:26;;;;;;;1.75;1.50;;;;;;;4.44;75.33;102033.47;4135771;28;20141;-78
2021/04/07 02:32:27;;;;;;;2.10;1.67;;;;;;;4.53;74.12;102035.56;4135809;28;20030;-78
2021/04/07 02:34:29;;;;;;;3.80;1.83;;;;;;;4.38;75.50;102039.03;4135885;28;20030;-78
2021/04/07 02:36:30;;;;;;;2.72;1.70;;;;;;;4.38;75.31;102039.88;4135606;28;20037;-78
2021/04/07 02:38:32;;;;;;;2.28;1.50;;;;;;;4.26;75.88;102048.38;4135588;28;20061;-79
2021/04/07 02:40:33;;;;;;;2.60;1.58;;;;;;;4.20;75.78;102040.88;4135734;28;20121;-78
2021/04/07 02:42:34;;;;;;;3.38;1.70;;;;;;;4.07;76.00;102041.59;4135884;28;20030;-78
2021/04/07 02:44:36;;;;;;;3.45;1.67;;;;;;;3.99;76.49;102044.66;4135741;28;20050;-78
2021/04/07 02:46:38;;;;;;;2.00;1.70;;;;;;;4.14;75.32;102041.22;4135521;28;20037;-78
2021/04/07 02:48:39;;;;;;;1.77;1.48;;;;;;;4.05;75.66;102044.31;4134519;28;20434;-78
2021/04/07 02:50:40;;;;;;;2.20;1.58;;;;;;;3.96;76.39;102042.19;4135562;28;20085;-79
2021/04/07 02:52:42;;;;;;;2.42;1.92;;;;;;;3.88;76.06;102041.78;4135645;28;20552;-78
2021/04/07 02:54:43;;;;;;;5.00;2.05;;;;;;;3.96;75.25;102052.66;4135663;28;20042;-77
2021/04/07 02:56:44;;;;;;;6.57;2.20;;;;;;;3.86;75.90;102048.81;4135728;28;20117;-78
2021/04/07 02:58:45;;;;;;;3.42;1.73;;;;;;;3.85;76.07;102042.75;4135677;28;20030;-78
2021/04/07 03:00:47;;;;;;;2.45;1.67;;;;;;;3.69;76.98;102051.47;4135607;28;20034;-78
2021/04/07 03:02:48;;;;;;;4.45;1.65;;;;;;;3.66;77.74;102049.03;4135536;28;20038;-78
2021/04/07 03:04:49;;;;;;;3.40;1.83;;;;;;;3.70;77.84;102050.56;4135723;28;20030;-78
2021/04/07 03:06:50;;;;;;;3.17;1.75;;;;;;;3.79;77.25;102048.28;4135477;28;20038;-78
2021/04/07 03:08:52;;;;;;;2.30;1.60;;;;;;;3.80;76.54;102054.38;4135461;28;20081;-78
2021/04/07 03:10:53;;;;;;;3.55;1.95;;;;;;;3.85;76.60;102060.22;4135609;28;20430;-78
2021/04/07 03:12:54;;;;;;;2.78;1.80;;;;;;;3.74;76.81;102060.75;4135444;28;20144;-77
2021/04/07 03:14:55;;;;;;;3.95;1.48;;;;;;;3.76;76.08;102060.69;4135495;28;20050;-78
2021/04/07 03:16:56;;;;;;;3.72;1.92;;;;;;;3.63;77.11;102057.88;4135517;28;20027;-78
2021/04/07 03:18:58;;;;;;;2.50;1.65;;;;;;;3.67;77.16;102063.78;4135382;28;20066;-78
2021/04/07 03:20:59;;;;;;;2.58;2.15;;;;;;;3.66;76.82;102060.31;4135340;28;20407;-77
2021/04/07 03:23:00;;;;;;;2.83;1.98;;;;;;;3.63;77.04;102062.25;4135499;28;20560;-79
2021/04/07 03:25:03;;;;;;;3.58;1.70;;;;;;;3.62;77.25;102060.53;4135393;28;20026;-78
2021/04/07 03:27:05;;;;;;;3.47;1.63;;;;;;;3.55;77.11;102053.97;4136153;28;20061;-78
2021/04/07 03:29:06;;;;;;;3.17;1.90;;;;;;;3.56;78.03;102063.47;4138370;28;20027;-78
2021/04/07 03:31:07;;;;;;;3.47;2.00;;;;;;;3.52;78.17;102080.22;4138365;28;20022;-78
2021/04/07 03:33:08;;;;;;;3.30;2.03;;;;;;;3.56;78.86;102077.34;4138363;28;20030;-78
2021/04/07 03:35:10;;;;;;;2.90;1.50;;;;;;;3.47;79.03;102084.81;4137909;28;20058;-78
2021/04/07 03:37:11;;;;;;;2.55;1.65;;;;;;;3.56;77.98;102086.94;4138268;28;20034;-78
2021/04/07 03:39:13;;;;;;;4.47;1.90;;;;;;;3.56;78.48;102079.97;4138006;28;20464;-78
2021/04/07 03:41:14;;;;;;;7.53;1.85;;;;;;;3.52;78.50;102080.22;4138088;28;20041;-78
2021/04/07 03:43:19;;;;;;;3.35;1.70;;;;;;;3.51;78.84;102086.34;4138031;28;20032;-78
2021/04/07 03:45:20;;;;;;;3.58;2.78;;;;;;;3.56;77.13;102090.41;4138013;28;20034;-79
2021/04/07 03:47:21;;;;;;;4.43;1.80;;;;;;;3.54;78.01;102091.41;4138163;28;20034;-78
2021/04/07 03:49:22;;;;;;;3.35;1.90;;;;;;;3.64;78.34;102079.59;4137983;28;20027;-78
2021/04/07 03:51:24;;;;;;;2.53;1.60;;;;;;;3.63;78.20;102090.94;4136496;28;20061;-78
2021/04/07 03:53:25;;;;;;;3.63;1.85;;;;;;;3.57;77.98;102099.94;4137981;28;20397;-78
2021/04/07 03:55:26;;;;;;;3.58;2.15;;;;;;;3.51;78.87;102096.78;4138103;28;20026;-78
2021/04/07 03:57:28;;;;;;;3.22;1.85;;;;;;;3.56;78.28;102089.56;4137802;28;20100;-78
2021/04/07 03:59:30;;;;;;;3.90;1.65;;;;;;;3.70;76.82;102092.31;4137745;28;20054;-78
2021/04/07 04:01:31;;;;;;;3.25;2.05;;;;;;;3.52;77.94;102093.25;4137474;28;20026;-78
2021/04/07 04:03:33;;;;;;;2.10;1.50;;;;;;;3.35;78.31;102094.09;4137740;28;20038;-78
2021/04/07 04:05:35;;;;;;;4.57;2.22;;;;;;;3.26;78.03;102095.41;4137500;28;20405;-78
2021/04/07 04:07:37;;;;;;;1.90;1.50;;;;;;;3.17;77.67;102101.06;4137534;28;20038;-78
2021/04/07 04:09:38;;;;;;;2.65;1.60;;;;;;;3.19;78.60;102096.66;4137749;28;20044;-78
2021/04/07 04:11:39;;;;;;;3.50;1.80;;;;;;;3.14;78.68;102096.00;4137512;28;20113;-78
2021/04/07 04:13:40;;;;;;;2.00;1.63;;;;;;;3.16;77.84;102088.97;4137755;28;20041;-78
2021/04/07 04:15:42;;;;;;;2.83;1.60;;;;;;;3.05;78.72;102100.81;4137323;28;20405;-78
2021/04/07 04:17:44;;;;;;;4.13;1.70;;;;;;;3.01;79.11;102100.16;4137518;28;20061;-79
2021/04/07 04:19:45;;;;;;;2.88;1.52;;;;;;;2.81;80.08;102102.84;4137441;28;20023;-78
2021/04/07 04:21:46;;;;;;;2.58;1.98;;;;;;;2.77;80.33;102098.72;4137087;28;20041;-78
2021/04/07 04:23:47;;;;;;;4.05;2.22;;;;;;;2.81;80.35;102104.63;4135849;28;20038;-79
2021/04/07 04:25:49;;;;;;;2.55;1.65;;;;;;;2.77;80.72;102107.38;4137291;28;20045;-78
2021/04/07 04:27:50;;;;;;;3.22;1.80;;;;;;;2.64;80.22;102108.88;4137405;28;20041;-78
2021/04/07 04:29:52;;;;;;;2.65;1.70;;;;;;;2.48;80.34;102109.66;4137340;28;20070;-78
2021/04/07 04:31:53;;;;;;;2.80;1.73;;;;;;;2.31;80.95;102112.19;4137202;28;20030;-78
2021/04/07 04:33:54;;;;;;;6.97;2.63;;;;;;;2.35;81.46;102119.78;4137404;28;20092;-78
2021/04/07 04:35:57;;;;;;;2.10;1.95;;;;;;;2.37;81.08;102117.94;4137068;28;20030;-78
2021/04/07 04:37:58;;;;;;;3.15;1.92;;;;;;;2.32;80.90;102113.88;4136589;28;20472;-77
2021/04/07 04:40:00;;;;;;;3.20;2.17;;;;;;;2.32;81.60;102121.69;4151979;28;20164;-78
2021/04/07 04:42:02;;;;;;;3.05;2.38;;;;;;;2.32;81.80;102114.72;4137232;28;20038;-78
2021/04/07 04:44:03;;;;;;;3.95;1.98;;;;;;;2.18;81.98;102117.94;4137356;28;20584;-78
2021/04/07 04:46:04;;;;;;;4.32;2.33;;;;;;;2.28;82.82;102120.13;4136999;28;20410;-78
2021/04/07 04:48:06;;;;;;;3.38;1.73;;;;;;;2.37;81.60;102119.72;4136928;28;20030;-78
2021/04/07 04:50:09;;;;;;;5.72;2.00;;;;;;;2.44;82.06;102121.13;4136751;28;20157;-78
2021/04/07 04:52:11;;;;;;;3.25;2.42;;;;;;;2.38;81.63;102126.63;4136960;28;20467;-78
2021/04/07 04:54:13;;;;;;;4.60;2.70;;;;;;;2.39;81.67;102133.53;4137001;28;20038;-78
2021/04/07 04:56:14;;;;;;;5.55;2.85;;;;;;;2.44;81.15;102129.78;4137246;28;20054;-78
2021/04/07 04:58:15;;;;;;;5.47;2.58;;;;;;;2.40;82.42;102138.66;4136952;28;20034;-78
2021/04/07 05:00:17;;;;;;;5.57;2.80;;;;;;;2.19;81.88;102130.03;4136930;28;20026;-79
2021/04/07 05:02:18;;;;;;;6.78;2.78;;;;;;;2.09;82.94;102141.78;4136883;28;20026;-78
2021/04/07 05:04:19;;;;;;;4.68;2.63;;;;;;;2.03;82.98;102138.63;4136900;28;20400;-78
2021/04/07 05:06:20;;;;;;;3.50;2.60;;;;;;;2.14;83.60;102137.22;4136657;28;20065;-78
2021/04/07 05:08:22;;;;;;;6.07;3.10;;;;;;;2.21;83.34;102136.03;4136851;28;20027;-77
2021/04/07 05:10:23;;;;;;;5.72;3.20;;;;;;;2.26;83.53;102140.19;4136863;28;20376;-78
2021/04/07 05:12:24;;;;;;;6.45;3.13;;;;;;;2.36;83.16;102151.88;4135265;28;20061;-78
2021/04/07 05:14:25;;;;;;;6.18;2.70;;;;;;;2.37;82.54;102154.41;4136533;28;20034;-78
2021/04/07 05:16:27;;;;;;;4.95;3.17;;;;;;;2.22;83.05;102149.88;4136636;28;20034;-78
2021/04/07 05:18:28;;;;;;;5.15;2.70;;;;;;;2.03;83.69;102154.22;4136730;28;20034;-78
2021/04/07 05:20:29;;;;;;;4.75;2.88;;;;;;;2.08;83.04;102163.53;4136387;28;20022;-78
2021/04/07 05:22:31;;;;;;;3.58;2.70;;;;;;;2.17;83.73;102157.91;4135387;28;20053;-78
2021/04/07 05:24:32;;;;;;;4.43;3.10;;;;;;;2.19;83.40;102171.69;4136574;28;20030;-78
2021/04/07 05:26:35;;;;;;;7.63;2.85;;;;;;;2.26;82.77;102167.06;4136311;28;20077;-78
2021/04/07 05:28:39;;;;;;;5.20;2.67;;;;;;;2.27;82.78;102173.13;4136373;28;20110;-78
2021/04/07 05:31:02;;;;;;;6.15;2.92;;;;;;;2.19;82.66;102176.06;4136493;28;20037;-78
2021/04/07 05:33:03;;;;;;;3.55;2.88;;;;;;;2.15;82.79;102172.72;4136327;28;20113;-77
2021/04/07 05:35:06;;;;;;;4.85;2.92;;;;;;;2.06;83.19;102185.31;4136187;28;20030;-78
2021/04/07 05:37:07;;;;;;;4.97;2.92;;;;;;;2.17;82.99;102177.88;4136542;28;20033;-79
2021/04/07 05:39:08;;;;;;;5.93;3.38;;;;;;;2.10;83.27;102177.31;4134863;28;20124;-78
2021/04/07 05:41:10;;;;;;;5.32;3.47;;;;;;;2.18;83.50;102190.81;4136237;28;20413;-78
2021/04/07 05:43:12;;;;;;;4.45;3.47;;;;;;;2.29;83.01;102181.72;4136236;28;20537;-79
2021/04/07 05:45:13;;;;;;;4.80;3.40;;;;;;;2.29;82.34;102190.38;4136308;28;20118;-78
2021/04/07 05:47:14;;;;;;;4.75;3.50;;;;;;;2.24;82.49;102190.56;4136149;28;20065;-77
2021/04/07 05:49:16;;;;;;;11.85;3.60;;;;;;;2.31;82.22;102192.88;4135543;28;20031;-78
2021/04/07 05:51:17;;;;;;;8.18;4.03;;;;;;;2.20;82.29;102199.44;4135774;28;20041;-78
2021/04/07 05:53:19;;;;;;;5.28;3.47;;;;;;;2.12;82.97;102206.69;4136119;28;20128;-78
2021/04/07 05:55:20;;;;;;;6.00;2.70;;;;;;;2.12;83.06;102204.09;4136194;28;20486;-78
2021/04/07 05:57:22;;;;;;;5.32;3.58;;;;;;;2.23;83.15;102207.09;4136302;28;20026;-78
2021/04/07 05:59:23;;;;;;;3.80;3.30;;;;;;;2.32;82.52;102212.81;4136082;28;20040;-77
2021/04/07 06:01:24;;;;;;;4.72;3.20;;;;;;;2.41;82.04;102212.41;4128885;28;20036;-78
2021/04/07 06:03:25;;;;;;;6.90;3.28;;;;;;;2.44;82.61;102210.53;4118126;28;20086;-77
2021/04/07 06:05:27;;;;;;;4.68;3.08;;;;;;;2.62;80.28;102208.84;4118769;28;20403;-76
2021/04/07 06:07:28;;;;;;;4.93;3.60;;;;;;;2.67;79.64;102217.28;4117745;28;20101;-75
2021/04/07 06:09:30;;;;;;;5.85;3.35;;;;;;;2.60;79.55;102228.88;4119444;28;20027;-75
2021/04/07 06:11:31;;;;;;;5.97;3.00;;;;;;;2.31;79.80;102224.13;4119661;28;20034;-75
2021/04/07 06:13:32;;;;;;;5.88;3.20;;;;;;;2.18;80.99;102226.44;4119539;28;20178;-75
2021/04/07 06:15:34;;;;;;;3.60;2.60;;;;;;;2.29;81.87;102233.78;4119627;28;20691;-76
2021/04/07 06:17:36;;;;;;;2.97;2.35;;;;;;;2.31;81.46;102237.16;4119780;28;20027;-75
2021/04/07 06:19:37;;;;;;;5.95;3.15;;;;;;;2.20;82.21;102237.63;4119931;28;20046;-76
2021/04/07 06:21:38;;;;;;;3.63;2.50;;;;;;;2.27;82.52;102246.84;4119432;28;20034;-75
2021/04/07 06:23:39;;;;;;;3.85;2.72;;;;;;;2.33;83.00;102245.75;4119515;28;20031;-75
2021/04/07 06:25:43;;;;;;;4.65;2.63;;;;;;;2.40;82.92;102252.38;4117975;28;20464;-75
2021/04/07 06:27:48;;;;;;;3.88;2.75;;;;;;;2.41;83.43;102252.31;4119861;28;20067;-75
2021/04/07 06:29:50;;;;;;;6.80;3.25;;;;;;;2.45;82.95;102250.44;4119628;28;20031;-75
2021/04/07 06:31:51;;;;;;;3.80;2.28;;;;;;;2.52;82.21;102257.03;4124467;28;20037;-75
2021/04/07 06:33:53;;;;;;;5.13;3.03;;;;;;;2.71;81.40;102255.31;4135299;28;20034;-75
2021/04/07 06:35:57;;;;;;;4.55;2.60;;;;;;;2.79;82.08;102261.03;4135062;28;20038;-75
2021/04/07 06:37:59;;;;;;;;;;;;;;;2.97;81.35;102262.81;4135533;28;20043;-75
2021/04/07 06:40:00;;;;;;;6.55;3.45;;;;;;;3.13;81.01;102271.63;4133828;28;19975;-75
2021/04/07 06:42:01;;;;;;;5.65;3.33;;;;;;;3.27;80.99;102264.00;4131351;28;20054;-75
2021/04/07 06:44:03;;;;;;;5.07;2.45;;;;;;;3.25;80.91;102273.66;4134836;28;20035;-75
2021/04/07 06:46:08;;;;;;;4.45;2.42;;;;;;;3.18;81.70;102274.84;4135233;28;20084;-74
2021/04/07 06:48:10;;;;;;;3.47;2.58;;;;;;;3.21;81.91;102274.72;4134973;28;20030;-75
2021/04/07 06:50:12;;;;;;;3.38;2.25;;;;;;;3.32;82.09;102280.25;4134967;28;20038;-75
2021/04/07 06:52:20;;;;;;;10.25;5.65;;;;;;;3.53;81.20;102291.44;4134157;28;20065;-75
2021/04/07 06:54:24;;;;;;;5.47;3.75;;;;;;;3.60;81.13;102292.00;4135167;28;20038;-75
2021/04/07 06:56:25;;;;;;;7.18;2.92;;;;;;;3.72;80.16;102292.25;4132994;28;20030;-76
2021/04/07 06:58:27;;;;;;;4.82;3.13;;;;;;;3.80;80.26;102295.31;4134878;28;20031;-77
2021/04/07 07:00:28;;;;;;;5.65;2.53;;;;;;;4.01;79.09;102292.56;4133848;28;20038;-75
2021/04/07 07:02:30;;;;;;;6.88;3.25;;;;;;;4.13;77.61;102299.78;4138243;28;20118;-74
2021/04/07 07:04:32;;;;;;;3.00;2.53;;;;;;;4.17;77.88;102299.59;4137881;28;20095;-75
2021/04/07 07:06:34;;;;;;;3.72;2.53;;;;;;;4.30;77.21;102302.44;4136709;28;20532;-75
2021/04/07 07:08:35;;;;;;;4.53;2.42;;;;;;;4.37;77.00;102299.41;4137818;28;20045;-75
2021/04/07 07:10:45;;;;;;;3.67;2.33;;;;;;;4.50;75.32;102310.09;4138084;28;20030;-75
2021/04/07 07:12:47;;;;;;;5.07;2.10;;;;;;;4.55;74.98;102315.91;4137823;28;20177;-75
2021/04/07 07:14:49;;;;;;;3.42;2.13;;;;;;;4.47;75.83;102313.72;4136861;28;20030;-75
2021/04/07 07:16:51;;;;;;;7.13;2.38;;;;;;;4.71;73.50;102313.34;4138035;28;20034;-75
2021/04/07 07:18:53;;;;;;;2.80;2.30;;;;;;;4.84;72.70;102314.38;4136476;28;20387;-75
2021/04/07 07:20:55;;;;;;;4.40;2.28;;;;;;;4.87;72.61;102315.06;4137721;28;20038;-75
2021/04/07 07:22:57;;;;;;;4.97;2.08;;;;;;;4.90;71.45;102316.69;4137759;28;20042;-75
2021/04/07 07:25:01;;;;;;;3.20;2.13;;;;;;;4.98;71.37;102310.13;4137383;28;20400;-75
2021/04/07 07:27:06;;;;;;;2.92;2.22;;;;;;;4.93;71.90;102306.91;4137814;28;20061;-75
2021/04/07 07:29:09;;;;;;;4.45;2.13;;;;;;;5.00;72.32;102318.72;4137509;28;20423;-75
2021/04/07 07:31:29;;;;;;;4.97;2.38;;;;;;;5.01;72.29;102316.97;4137756;28;20034;-75
2021/04/07 07:33:32;;;;;;;3.42;2.40;;;;;;;5.10;71.60;102324.31;4137683;28;20038;-75
2021/04/07 07:35:33;;;;;;;4.03;2.42;;;;;;;5.28;69.74;102314.63;4137176;28;20038;-75
2021/04/07 07:37:34;;;;;;;4.80;2.22;;;;;;;5.26;70.35;102324.31;4137389;28;20498;-75
2021/04/07 07:39:37;;;;;;;5.13;2.38;;;;;;;5.24;70.81;102320.94;4137579;28;20030;-75
2021/04/07 07:41:39;;;;;;;5.25;2.50;;;;;;;5.26;70.41;102325.16;4137502;28;20022;-75
2021/04/07 07:43:41;;;;;;;5.82;2.33;;;;;;;5.43;69.37;102332.13;4137668;28;20062;-75
2021/04/07 07:45:43;;;;;;;5.20;2.17;;;;;;;5.57;68.91;102337.44;4137298;28;20026;-75
2021/04/07 07:47:45;;;;;;;5.30;2.28;;;;;;;5.58;68.80;102332.09;4137753;28;20061;-76
2021/04/07 07:49:58;;;;;;;3.78;2.40;;;;;;;5.48;68.69;102336.16;4136977;28;20442;-75
2021/04/07 07:51:59;;;;;;;4.03;1.95;;;;;;;5.52;68.44;102337.69;4137641;28;20040;-77
2021/04/07 07:54:13;;;;;;;2.60;1.80;;;;;;;5.62;66.32;102338.00;4137720;28;20053;-78
2021/04/07 07:56:16;;;;;;;3.60;1.63;;;;;;;5.58;65.63;102341.75;4137207;28;20056;-75
2021/04/07 07:58:22;;;;;;;5.72;2.55;;;;;;;5.60;64.55;102334.63;4137588;28;20034;-75
2021/04/07 08:00:27;;;;;;;4.13;2.00;;;;;;;5.64;63.89;102337.94;4137439;28;20619;-75
2021/04/07 08:02:29;;;;;;;5.32;2.00;;;;;;;5.74;63.73;102346.94;4137366;28;20084;-75
2021/04/07 08:04:31;;;;;;;5.57;2.10;;;;;;;5.78;63.56;102343.25;4137546;28;20039;-76
2021/04/07 08:06:32;;;;;;;2.33;2.13;;;;;;;5.76;63.04;102345.94;4137021;28;20330;-75
2021/04/07 08:08:34;;;;;;;3.63;1.80;;;;;;;5.83;62.00;102342.03;4137594;28;20090;-75
2021/04/07 08:10:37;;;;;;;3.97;2.03;;;;;;;5.91;61.55;102344.28;4137178;28;20042;-76
2021/04/07 08:12:40;;;;;;;3.25;2.28;;;;;;;6.09;62.08;102344.03;4136559;28;20045;-76
2021/04/07 08:14:46;;;;;;;3.20;2.20;;;;;;;6.16;62.21;102343.69;4136974;28;20030;-75
2021/04/07 08:16:47;;;;;;;4.30;2.47;;;;;;;5.85;63.37;102347.22;4136908;28;20030;-74
2021/04/07 08:18:50;;;;;;;3.10;2.10;;;;;;;6.06;64.15;102338.16;4136961;28;20042;-75
2021/04/07 08:20:52;;;;;;;4.93;2.38;;;;;;;6.15;63.28;102342.03;4136073;28;20046;-74
2021/04/07 08:22:55;;;;;;;6.20;2.40;;;;;;;6.09;60.46;102338.81;4136885;28;20478;-74
2021/04/07 08:24:57;;;;;;;5.50;2.25;;;;;;;6.07;59.33;102335.44;4137111;28;20046;-74
2021/04/07 08:26:59;;;;;;;6.07;2.30;;;;;;;6.15;60.01;102342.88;4137109;28;20030;-74
2021/04/07 08:29:01;;;;;;;5.45;2.33;;;;;;;6.09;59.89;102344.03;4136892;28;20030;-74
2021/04/07 08:31:02;;;;;;;4.53;2.20;;;;;;;5.91;59.72;102344.28;4136898;28;20030;-74
2021/04/07 08:33:05;;;;;;;3.83;2.47;;;;;;;6.06;59.80;102340.78;4135415;28;20042;-75
2021/04/07 08:35:09;;;;;;;4.90;2.20;;;;;;;6.04;59.53;102340.84;4136749;28;20030;-74
2021/04/07 08:37:15;;;;;;;5.13;2.22;;;;;;;5.93;61.75;102350.25;4137066;28;20062;-74
2021/04/07 08:39:18;;;;;;;5.90;3.13;;;;;;;5.93;60.90;102345.03;4135505;28;20437;-74
2021/04/07 08:41:22;;;;;;;9.00;2.67;;;;;;;5.96;59.53;102344.84;4136747;28;20045;-74
2021/04/07 08:43:28;;;;;;;5.20;2.45;;;;;;;6.02;60.68;102341.88;4136834;28;20270;-74
2021/04/07 08:45:44;;;;;;;4.65;2.45;;;;;;;6.03;63.21;102348.81;4136569;28;20035;-74
2021/04/07 08:48:02;;;;;;;4.28;2.42;;;;;;;6.30;62.04;102349.00;4136878;28;20023;-75
2021/04/07 08:50:05;;;;;;;3.45;1.98;;;;;;;6.42;62.29;102351.72;4136392;28;20045;-74
2021/04/07 08:52:23;;;;;;;2.70;2.13;;;;;;;6.59;60.04;102346.34;4136760;28;20105;-74
2021/04/07 08:54:24;;;;;;;7.10;2.60;;;;;;;6.58;58.90;102346.44;4136493;28;20257;-74
2021/04/07 08:56:31;;;;;;;6.72;2.42;;;;;;;6.66;58.80;102352.91;4136222;28;20040;-75
2021/04/07 08:58:33;;;;;;;3.83;2.03;;;;;;;6.69;58.63;102349.25;4136600;28;20026;-75
2021/04/07 09:00:36;;;;;;;9.45;3.20;;;;;;;6.82;55.85;102349.34;4136428;28;20608;-75
2021/04/07 09:02:55;;;;;;;3.73;1.70;;;;;;;6.68;54.92;102350.19;4136554;28;20026;-75
2021/04/07 09:05:04;;;;;;;4.90;1.98;;;;;;;6.69;53.21;102354.50;4136429;28;20508;-75
2021/04/07 09:07:11;;;;;;;5.30;2.80;;;;;;;6.80;54.88;102357.34;4136673;28;20045;-75
2021/04/07 09:09:21;;;;;;;4.60;2.03;;;;;;;7.01;54.37;102348.16;4136344;28;20032;-75
2021/04/07 09:11:31;;;;;;;2.85;2.17;;;;;;;6.95;53.38;102350.31;4136280;28;20180;-74
2021/04/07 09:13:35;;;;;;;5.93;2.55;;;;;;;6.55;56.40;102364.97;4136514;28;20034;-74
2021/04/07 09:16:10;;;;;;;4.38;2.20;;;;;;;6.91;55.40;102357.53;4136217;28;20121;-74
2021/04/07 09:18:11;;;;;;;4.00;2.35;;;;;;;6.91;54.87;102359.28;4139131;28;20045;-74
2021/04/07 09:20:41;;;;;;;3.72;2.25;;;;;;;7.06;53.68;102355.75;4136152;28;20126;-75
2021/04/07 09:22:46;;;;;;;4.80;2.30;;;;;;;7.27;53.75;102357.03;4136092;28;20026;-74
2021/04/07 09:24:48;;;;;;;7.75;2.25;;;;;;;7.33;52.98;102364.53;4136104;28;20442;-74
2021/04/07 09:26:50;;;;;;;4.53;2.33;;;;;;;7.26;54.78;102371.09;4136030;28;20030;-74
2021/04/07 09:28:53;;;;;;;5.43;2.00;;;;;;;7.25;53.90;102369.44;4135955;28;20113;-74
2021/04/07 09:30:54;;;;;;;2.67;1.92;;;;;;;7.34;52.92;102368.00;4135799;28;20037;-74
2021/04/07 09:32:56;;;;;;;4.68;2.17;;;;;;;7.58;52.04;102361.22;4135920;28;20061;-74
2021/04/07 09:34:59;;;;;;;5.32;2.20;;;;;;;7.72;52.65;102369.91;4135700;28;20026;-74
2021/04/07 09:37:01;;;;;;;3.00;2.00;;;;;;;7.77;54.08;102369.59;4135903;28;20053;-74
2021/04/07 09:39:06;;;;;;;3.53;1.73;;;;;;;7.82;51.11;102365.72;4135591;28;20535;-75